KDVT/DVT METAR and TAF weather

Enter ICAO airport designator
Station Type Date Time Source
KDVT METAR 2021/09/28 16:53 UTC NOAA

KDVT 281653Z 14008KT 10SM SCT075 26/17 A2991 RMK AO2 SLP106 T02560167


Station Type Date Time Source
KDVT Decoded METAR 2021/09/28 16:53 UTC NOAA

PHOENIX-DEER VALLEY MUN, AZ, United States (KDVT) 33-41N 112-04W 443M
Sep 28, 2021 - 12:53 PM EDT / 2021.09.28 1653 UTC
Wind: from the SE (140 degrees) at 9 MPH (8 KT):0
Visibility: 10 mile(s):0
Sky conditions: partly cloudy
Temperature: 78.1 F (25.6 C)
Dew Point: 62.1 F (16.7 C)
Relative Humidity: 57%
Pressure (altimeter): 29.91 in. Hg (1012 hPa)
ob: KDVT 281653Z 14008KT 10SM SCT075 26/17 A2991 RMK AO2 SLP106 T02560167
cycle: 17

Station Type Date Time Source
KDVT TAF 2021/09/28 12:22 UTC NOAA

TAF KDVT 281120Z 2812/2912 07005KT P6SM SCT100 BKN150
FM281800 17007KT P6SM FEW060
FM282200 23010G18KT P6SM FEW100
FM290500 24009KT P6SM FEW060 FEW120 SCT250
FM290900 VRB05KT P6SM FEW060 FEW120 SCT200

Example: see airport list